Time;durP1;ratioP1;P1;durP2;ratioP2;P2;SDS_P1;SDS_P2;PMS_P1;PMS_P2;Temp;Humidity;BMP_temperature;BMP_pressure;BME280_temperature;BME280_humidity;BME280_pressure;Samples;Min_cycle;Max_cycle;Signal;HPM_P1;HPM_P2
2021/09/23 06:00:29;;;;;;;348.73;41.78;;;11.00;99.90;;;;;;6097865;23;20025;31
2021/09/23 06:02:56;;;;;;;325.27;40.53;;;10.90;99.90;;;;;;4882492;29;20048;-88
2021/09/23 06:05:24;;;;;;;281.48;40.05;;;11.00;99.90;;;;;;4886541;29;20394;-88
2021/09/23 06:07:50;;;;;;;249.43;41.78;;;11.00;99.90;;;;;;4891835;29;20045;-84
2021/09/23 06:10:17;;;;;;;223.70;42.50;;;11.00;99.90;;;;;;4893515;29;20052;-85
2021/09/23 06:12:44;;;;;;;153.57;36.65;;;11.10;99.90;;;;;;4885323;29;20470;-83
2021/09/23 06:15:12;;;;;;;163.88;43.22;;;11.20;99.90;;;;;;4892623;29;20406;-84
2021/09/23 06:17:43;;;;;;;129.43;37.08;;;11.20;99.90;;;;;;4890457;29;20056;-85
2021/09/23 06:20:10;;;;;;;163.13;44.35;;;11.30;99.90;;;;;;4889147;29;20048;-84
2021/09/23 06:22:37;;;;;;;118.47;38.45;;;11.40;99.90;;;;;;4886320;29;20109;-85
2021/09/23 06:25:05;;;;;;;148.32;44.10;;;11.40;99.90;;;;;;4879745;29;20097;-85
2021/09/23 06:27:32;;;;;;;109.57;37.22;;;11.40;99.90;;;;;;4882005;29;20041;-84
2021/09/23 06:29:59;;;;;;;112.00;39.13;;;11.50;99.90;;;;;;4879122;29;20083;-82
2021/09/23 06:32:26;;;;;;;141.75;44.78;;;11.50;99.90;;;;;;4888299;29;20060;-84
2021/09/23 06:34:53;;;;;;;94.32;36.35;;;11.60;99.90;;;;;;4888758;29;20048;-84
2021/09/23 06:37:40;;;;;;;123.45;42.58;;;11.60;99.90;;;;;;4886653;29;20479;-84
2021/09/23 06:40:08;;;;;;;86.43;36.00;;;11.70;99.90;;;;;;4877839;29;20048;-83
2021/09/23 06:42:35;;;;;;;86.97;38.08;;;11.70;99.90;;;;;;4891528;29;20076;-84
2021/09/23 06:45:03;;;;;;;83.55;36.92;;;11.70;99.90;;;;;;4881534;29;20045;-87
2021/09/23 06:47:30;;;;;;;85.88;36.72;;;11.80;99.90;;;;;;4883550;29;20076;-86
2021/09/23 06:49:56;;;;;;;81.20;35.97;;;11.80;99.90;;;;;;4887881;29;20105;-86
2021/09/23 06:52:23;;;;;;;83.28;37.28;;;11.80;99.90;;;;;;4883806;29;20045;-86
2021/09/23 06:54:50;;;;;;;83.15;37.67;;;11.90;99.90;;;;;;4892977;29;20072;-86
2021/09/23 06:57:17;;;;;;;71.40;34.88;;;11.90;99.90;;;;;;4880594;29;20049;-87
2021/09/23 06:59:44;;;;;;;81.20;35.42;;;12.00;99.90;;;;;;4889305;29;20056;-87
2021/09/23 07:02:11;;;;;;;69.90;34.83;;;12.00;99.90;;;;;;4887652;29;20069;-86
2021/09/23 07:04:38;;;;;;;77.68;34.10;;;12.00;99.90;;;;;;4889637;29;20517;-87
2021/09/23 07:07:05;;;;;;;73.88;35.40;;;12.10;99.90;;;;;;4888963;29;20049;-86
2021/09/23 07:09:32;;;;;;;68.65;34.83;;;12.20;99.90;;;;;;4893086;29;20080;-87
2021/09/23 07:12:00;;;;;;;68.32;33.40;;;12.20;99.90;;;;;;4890178;29;20116;-87
2021/09/23 07:14:28;;;;;;;64.22;32.25;;;12.30;99.90;;;;;;4889114;29;20060;-87
2021/09/23 07:16:55;;;;;;;65.53;32.43;;;12.30;99.90;;;;;;4889473;29;20041;-86
2021/09/23 07:19:22;;;;;;;60.47;31.52;;;12.40;99.90;;;;;;4888773;29;20044;-87
2021/09/23 07:21:54;;;;;;;60.30;31.48;;;12.40;99.90;;;;;;4892375;29;20044;-87
2021/09/23 07:24:21;;;;;;;61.45;31.70;;;12.40;99.90;;;;;;4891387;29;20852;-85
2021/09/23 07:26:48;;;;;;;61.13;31.80;;;12.50;99.90;;;;;;4891067;29;20117;-84
2021/09/23 07:29:15;;;;;;;65.13;31.23;;;12.50;99.90;;;;;;4888698;29;20096;-86
2021/09/23 07:31:43;;;;;;;64.82;32.85;;;12.50;99.90;;;;;;4887680;29;20044;-85
2021/09/23 07:34:11;;;;;;;66.47;33.63;;;12.60;99.90;;;;;;4888184;29;20077;-85
2021/09/23 07:36:39;;;;;;;65.55;35.17;;;12.70;99.90;;;;;;4891863;29;20052;-86
2021/09/23 07:39:08;;;;;;;65.25;33.67;;;12.80;99.90;;;;;;4890049;29;20056;-86
2021/09/23 07:41:40;;;;;;;63.45;33.65;;;12.80;99.90;;;;;;4887841;29;20620;-84
2021/09/23 07:44:08;;;;;;;55.88;31.70;;;12.90;99.90;;;;;;4887785;29;20076;-86
2021/09/23 07:46:36;;;;;;;53.53;31.92;;;13.00;99.90;;;;;;4886688;29;20064;-84
2021/09/23 07:49:04;;;;;;;54.95;30.40;;;13.00;99.90;;;;;;4874363;29;20056;-84
2021/09/23 07:51:31;;;;;;;53.08;31.15;;;13.10;99.90;;;;;;4890716;29;20413;-84
2021/09/23 07:53:59;;;;;;;51.50;30.13;;;13.20;99.90;;;;;;4890514;29;20048;-83
2021/09/23 07:56:26;;;;;;;49.50;28.40;;;13.30;99.90;;;;;;4888261;29;20108;-84
2021/09/23 07:58:53;;;;;;;54.45;29.05;;;13.30;99.90;;;;;;4890228;29;20041;-86
2021/09/23 08:01:20;;;;;;;43.15;27.30;;;13.40;99.90;;;;;;4880133;29;20069;-83
2021/09/23 08:03:48;;;;;;;37.28;25.30;;;13.40;99.90;;;;;;4895621;29;20505;-83
2021/09/23 08:06:16;;;;;;;38.67;25.92;;;13.40;99.90;;;;;;4894114;29;20052;-84
2021/09/23 08:08:43;;;;;;;35.47;23.55;;;13.50;99.90;;;;;;4892384;29;20105;-85
2021/09/23 08:11:10;;;;;;;36.08;24.42;;;13.50;99.90;;;;;;4891053;29;20045;-86
2021/09/23 08:13:37;;;;;;;35.30;23.95;;;13.50;99.90;;;;;;4891225;29;20048;-84
2021/09/23 08:16:04;;;;;;;34.70;23.35;;;13.50;99.90;;;;;;4893063;29;20474;-84
2021/09/23 08:18:31;;;;;;;34.22;22.73;;;13.60;99.90;;;;;;4893909;29;20052;-85
2021/09/23 08:20:58;;;;;;;34.20;22.60;;;13.60;99.90;;;;;;4893011;29;20044;-86
2021/09/23 08:23:24;;;;;;;32.97;22.02;;;13.70;99.90;;;;;;4890640;29;20076;-84
2021/09/23 08:25:52;;;;;;;33.38;21.88;;;13.70;99.90;;;;;;4876659;29;20146;-84
2021/09/23 08:28:23;;;;;;;30.65;20.42;;;13.80;99.90;;;;;;4893007;29;20056;-86
2021/09/23 08:30:50;;;;;;;27.77;19.13;;;14.00;99.90;;;;;;4880386;29;20513;-86
2021/09/23 08:33:18;;;;;;;23.15;18.13;;;14.20;99.90;;;;;;4878643;29;20521;-84
2021/09/23 08:35:45;;;;;;;21.52;17.30;;;14.40;99.90;;;;;;4891981;29;20077;-84
2021/09/23 08:38:12;;;;;;;18.83;16.05;;;14.50;99.90;;;;;;4890172;29;20505;-83
2021/09/23 08:40:39;;;;;;;19.23;15.90;;;14.70;99.90;;;;;;4889557;29;20049;-84
2021/09/23 08:43:09;;;;;;;20.42;15.90;;;14.80;99.90;;;;;;4891298;29;20060;-85
2021/09/23 08:45:36;;;;;;;20.90;15.85;;;14.90;99.90;;;;;;4877754;29;20048;-83
2021/09/23 08:48:04;;;;;;;18.42;14.63;;;15.00;99.90;;;;;;4892632;29;20060;-84
2021/09/23 08:50:31;;;;;;;20.65;15.93;;;15.10;99.90;;;;;;4889134;29;20084;-84
2021/09/23 08:52:59;;;;;;;16.63;13.75;;;15.20;99.90;;;;;;4884330;29;20048;-84
2021/09/23 08:55:28;;;;;;;14.93;13.05;;;15.20;99.90;;;;;;4889559;29;20076;-84
2021/09/23 08:57:58;;;;;;;15.20;12.73;;;15.30;99.90;;;;;;4893590;29;20060;-84
2021/09/23 09:00:25;;;;;;;16.65;12.88;;;15.20;99.90;;;;;;4892520;29;20060;-87
2021/09/23 09:03:19;;;;;;;14.10;12.63;;;15.30;99.90;;;;;;4890170;29;20052;-84
2021/09/23 09:05:52;;;;;;;14.80;12.48;;;15.30;99.90;;;;;;4889527;29;20044;-85
2021/09/23 09:08:21;;;;;;;13.63;12.13;;;15.30;99.90;;;;;;4888700;29;20048;-83
2021/09/23 09:10:48;;;;;;;15.25;12.65;;;15.40;99.90;;;;;;4889436;29;20051;-84
2021/09/23 09:13:15;;;;;;;15.27;12.55;;;15.50;99.90;;;;;;4889989;29;20056;-84
2021/09/23 09:15:47;;;;;;;13.07;11.32;;;15.60;99.90;;;;;;4879706;29;20084;-84
2021/09/23 09:18:19;;;;;;;13.32;11.88;;;15.80;99.90;;;;;;4892121;29;20539;-84
2021/09/23 09:21:14;;;;;;;17.08;11.50;;;15.90;99.90;;;;;;4891442;29;20513;-84
2021/09/23 09:23:52;;;;;;;13.10;10.52;;;16.10;99.90;;;;;;4887200;29;20048;-84
2021/09/23 09:26:37;;;;;;;10.00;8.10;;;16.20;99.90;;;;;;4889626;29;20048;-84
2021/09/23 09:29:11;;;;;;;13.57;10.13;;;16.20;99.90;;;;;;4888552;29;20722;-84
2021/09/23 09:31:46;;;;;;;9.52;8.50;;;16.30;99.90;;;;;;4889634;29;20049;-84
2021/09/23 09:34:13;;;;;;;12.70;8.23;;;16.40;99.90;;;;;;4889929;29;20049;-83
2021/09/23 09:36:42;;;;;;;10.18;7.70;;;16.40;99.90;;;;;;4894554;29;20061;-84
2021/09/23 09:39:29;;;;;;;9.18;6.85;;;16.50;99.90;;;;;;4874869;29;20056;-83
2021/09/23 09:41:56;;;;;;;7.40;5.53;;;16.60;99.90;;;;;;4882982;29;20089;-84
2021/09/23 09:44:23;;;;;;;6.43;4.90;;;16.60;99.90;;;;;;4886481;29;20052;-83
2021/09/23 09:46:53;;;;;;;9.20;5.32;;;16.60;99.90;;;;;;4888024;29;20072;-84
2021/09/23 09:49:23;;;;;;;7.65;4.47;;;16.70;99.90;;;;;;4889087;29;20073;-84
2021/09/23 09:51:53;;;;;;;6.25;4.10;;;16.70;99.90;;;;;;4893091;29;20053;-83
2021/09/23 09:54:20;;;;;;;7.53;3.72;;;16.80;99.90;;;;;;4891930;29;20053;-82
2021/09/23 09:57:01;;;;;;;5.88;4.30;;;16.90;99.90;;;;;;4883655;29;20101;-81
2021/09/23 09:59:28;;;;;;;5.38;3.60;;;17.00;99.90;;;;;;4886455;29;20049;-83
2021/09/23 10:01:57;;;;;;;6.63;3.65;;;17.10;99.90;;;;;;4888911;29;20115;-83
2021/09/23 10:04:29;;;;;;;7.22;3.20;;;17.10;99.90;;;;;;4889348;29;20060;-83
2021/09/23 10:06:59;;;;;;;4.80;3.00;;;17.20;99.90;;;;;;4892326;29;20068;-83
2021/09/23 10:09:27;;;;;;;4.68;2.90;;;17.30;99.90;;;;;;4891516;29;20068;-84
2021/09/23 10:11:54;;;;;;;4.82;3.17;;;17.40;99.90;;;;;;4893998;29;20057;-83
2021/09/23 10:14:23;;;;;;;4.82;2.75;;;17.60;99.90;;;;;;4888819;29;20049;-83
2021/09/23 10:16:50;;;;;;;4.65;2.55;;;17.70;99.90;;;;;;4889404;29;20569;-84
2021/09/23 10:19:18;;;;;;;6.30;2.90;;;17.90;99.90;;;;;;4888287;29;20063;-82
2021/09/23 10:21:45;;;;;;;6.25;3.17;;;18.10;99.90;;;;;;4892198;29;20576;-83
2021/09/23 10:24:14;;;;;;;3.22;2.38;;;18.30;99.90;;;;;;4891269;29;20057;-82
2021/09/23 10:26:45;;;;;;;6.47;3.25;;;18.40;99.90;;;;;;4882744;29;20057;-83
2021/09/23 10:29:12;;;;;;;4.70;2.80;;;18.30;99.90;;;;;;4883588;29;20560;-83
2021/09/23 10:31:40;;;;;;;5.77;2.70;;;18.40;99.90;;;;;;4888737;29;20059;-83
2021/09/23 10:34:11;;;;;;;4.53;2.88;;;18.40;99.90;;;;;;4890129;29;20047;-83
2021/09/23 10:36:41;;;;;;;3.97;2.65;;;18.50;99.90;;;;;;4892249;29;20049;-83
2021/09/23 10:39:10;;;;;;;4.88;2.75;;;18.60;99.90;;;;;;4890115;29;20635;-83
2021/09/23 10:41:39;;;;;;;4.65;2.70;;;18.70;99.90;;;;;;4888682;29;20585;-82
2021/09/23 10:44:07;;;;;;;5.32;2.45;;;18.80;99.90;;;;;;4887928;29;20473;-82
2021/09/23 10:46:35;;;;;;;3.07;2.47;;;18.90;99.90;;;;;;4889320;29;20056;-82
2021/09/23 10:49:06;;;;;;;4.30;2.45;;;19.00;99.90;;;;;;4890283;29;20044;-83
2021/09/23 10:51:34;;;;;;;3.55;2.10;;;19.00;99.90;;;;;;4891400;29;20061;-82
2021/09/23 10:54:05;;;;;;;4.82;2.40;;;18.90;99.90;;;;;;4890836;29;20052;-83
2021/09/23 10:56:33;;;;;;;4.30;2.33;;;18.90;99.90;;;;;;4888407;29;20044;-83
2021/09/23 10:59:01;;;;;;;4.15;2.58;;;18.70;99.90;;;;;;4888519;29;20131;-83
2021/09/23 11:01:35;;;;;;;4.35;2.25;;;18.60;99.90;;;;;;4886663;29;20100;-84
2021/09/23 11:04:22;;;;;;;4.10;2.10;;;18.50;99.90;;;;;;4886628;29;20085;-83
2021/09/23 11:06:50;;;;;;;4.10;2.42;;;18.40;99.90;;;;;;4891933;29;20048;-88
2021/09/23 11:34:39;;;;;;;4.63;3.00;;;18.70;99.90;;;;;;5059456;28;20357;-85
2021/09/23 11:37:09;;;;;;;4.57;2.50;;;18.70;99.90;;;;;;5059577;28;20091;-84
2021/09/23 11:39:36;;;;;;;3.30;2.20;;;18.90;99.90;;;;;;5045076;28;20514;-85
2021/09/23 11:42:19;;;;;;;4.30;2.58;;;19.00;99.90;;;;;;5049757;28;20415;-84
2021/09/23 11:44:50;;;;;;;4.25;2.53;;;19.10;99.90;;;;;;5049709;28;20045;-85
2021/09/23 11:47:22;;;;;;;4.85;2.53;;;19.30;99.90;;;;;;5047829;28;20045;-85
2021/09/23 11:49:53;;;;;;;5.93;2.35;;;19.40;99.90;;;;;;5048413;28;20080;-85
2021/09/23 11:52:36;;;;;;;4.40;2.90;;;19.40;99.90;;;;;;5048231;28;20391;-85
2021/09/23 11:55:05;;;;;;;6.70;2.90;;;19.40;99.90;;;;;;5046706;28;20041;-85
2021/09/23 11:57:32;;;;;;;6.55;3.05;;;19.20;99.90;;;;;;5044851;28;20041;-85
2021/09/23 12:00:03;;;;;;;4.88;2.75;;;19.10;99.90;;;;;;5050238;28;20041;-84
2021/09/23 12:02:32;;;;;;;3.15;2.22;;;19.10;99.90;;;;;;5046814;28;20068;-85
2021/09/23 12:05:00;;;;;;;4.78;2.28;;;19.20;99.90;;;;;;5042103;28;20132;-85
2021/09/23 12:07:31;;;;;;;6.72;2.65;;;19.20;99.90;;;;;;5043975;28;20041;-84
2021/09/23 12:10:06;;;;;;;3.97;2.67;;;19.20;99.90;;;;;;5043748;28;20053;-86
2021/09/23 12:12:33;;;;;;;4.10;2.33;;;19.30;99.90;;;;;;5043448;28;20056;-87
2021/09/23 12:15:00;;;;;;;5.10;2.58;;;19.30;99.90;;;;;;5045890;28;20128;-83
2021/09/23 12:17:27;;;;;;;6.72;2.80;;;19.40;99.90;;;;;;5043797;28;20439;-85
2021/09/23 12:19:55;;;;;;;4.90;2.53;;;19.40;99.90;;;;;;5042185;28;20049;-84
2021/09/23 12:22:33;;;;;;;3.72;2.40;;;19.40;99.90;;;;;;5041563;28;20045;-84
2021/09/23 12:25:10;;;;;;;4.05;2.22;;;19.30;99.90;;;;;;5043646;28;20529;-85
2021/09/23 12:27:38;;;;;;;4.60;1.83;;;19.30;99.90;;;;;;5043149;28;20049;-85
2021/09/23 12:30:05;;;;;;;3.38;1.98;;;19.30;99.90;;;;;;5045467;28;20057;-85
2021/09/23 12:32:37;;;;;;;4.32;2.50;;;19.30;99.90;;;;;;5042766;28;20041;-85
2021/09/23 12:35:19;;;;;;;5.28;2.30;;;19.40;99.90;;;;;;5032608;28;20045;-84
2021/09/23 12:37:48;;;;;;;4.70;2.22;;;19.40;99.90;;;;;;5029832;28;20045;-84
2021/09/23 12:40:19;;;;;;;4.43;2.00;;;19.30;99.90;;;;;;5029264;28;20076;-84
2021/09/23 12:42:46;;;;;;;5.68;2.22;;;19.30;99.90;;;;;;5014938;28;20046;-85
2021/09/23 12:45:16;;;;;;;4.45;1.90;;;19.30;99.90;;;;;;5030245;28;20045;-84
2021/09/23 12:47:51;;;;;;;5.68;2.17;;;19.40;99.90;;;;;;5029022;28;20103;-84
2021/09/23 12:50:21;;;;;;;5.28;2.03;;;19.40;99.90;;;;;;5029411;28;20515;-84
2021/09/23 12:52:49;;;;;;;6.63;2.50;;;19.50;99.90;;;;;;5030360;28;20131;-85
2021/09/23 12:55:23;;;;;;;4.65;1.85;;;19.40;99.90;;;;;;5029286;28;20053;-84
2021/09/23 12:57:58;;;;;;;4.15;1.67;;;19.50;99.90;;;;;;5014232;28;20425;-84
2021/09/23 13:00:30;;;;;;;3.45;1.92;;;19.50;99.90;;;;;;5030794;28;20511;-84
2021/09/23 13:03:05;;;;;;;3.83;1.83;;;19.60;99.90;;;;;;5029708;28;20064;-83
2021/09/23 13:05:34;;;;;;;6.05;2.20;;;19.50;99.90;;;;;;5029534;28;20503;-84
2021/09/23 13:08:20;;;;;;;3.17;1.90;;;19.40;99.90;;;;;;5029466;28;20404;-85
2021/09/23 13:10:48;;;;;;;6.95;1.92;;;19.40;99.90;;;;;;5029112;28;20034;-84
2021/09/23 13:13:21;;;;;;;;;;;19.20;99.90;;;;;;5029319;28;20049;-86
2021/09/23 13:15:48;;;;;;;3.47;2.05;;;19.20;99.90;;;;;;5046642;28;20198;-85
2021/09/23 13:18:27;;;;;;;4.40;1.80;;;19.20;99.90;;;;;;5030612;28;20103;-85
2021/09/23 13:21:00;;;;;;;3.15;1.48;;;19.20;99.90;;;;;;5029199;28;20422;-84
2021/09/23 13:23:35;;;;;;;3.15;1.42;;;19.30;99.90;;;;;;5028752;28;20486;-85
2021/09/23 13:26:07;;;;;;;2.95;1.30;;;19.40;99.90;;;;;;5060770;28;20057;-84
2021/09/23 13:28:36;;;;;;;3.65;1.58;;;19.50;99.90;;;;;;5029083;28;20045;-84
2021/09/23 13:31:09;;;;;;;2.35;1.50;;;19.50;99.90;;;;;;5029311;28;20057;-85
2021/09/23 13:33:37;;;;;;;3.97;1.90;;;19.60;99.90;;;;;;5028664;28;20060;-86
2021/09/23 13:36:07;;;;;;;4.75;2.20;;;19.50;99.90;;;;;;5030698;28;20052;-84
2021/09/23 13:38:35;;;;;;;4.30;1.77;;;19.40;99.90;;;;;;5027184;28;20534;-85
2021/09/23 13:41:04;;;;;;;2.72;1.60;;;19.40;99.90;;;;;;5027391;28;20584;-85
2021/09/23 13:43:32;;;;;;;2.80;1.52;;;19.30;99.90;;;;;;5027635;28;20052;-85
2021/09/23 13:45:59;;;;;;;4.03;1.70;;;19.40;99.90;;;;;;5028040;28;20068;-85
2021/09/23 13:48:29;;;;;;;2.35;1.77;;;19.60;99.90;;;;;;5027637;28;20503;-85
2021/09/23 13:50:58;;;;;;;5.05;1.58;;;19.50;99.90;;;;;;5028796;28;20038;-85
2021/09/23 13:53:26;;;;;;;4.25;2.40;;;19.40;99.90;;;;;;5026808;28;20045;-85
2021/09/23 13:55:53;;;;;;;2.03;1.80;;;19.40;99.90;;;;;;5028823;28;20164;-82
2021/09/23 13:58:21;;;;;;;3.38;1.80;;;19.40;99.90;;;;;;5028288;28;20423;-84
2021/09/23 14:00:48;;;;;;;3.30;1.80;;;19.40;99.90;;;;;;5028859;28;20591;-83
2021/09/23 14:03:16;;;;;;;3.70;1.90;;;19.50;99.90;;;;;;5028296;28;20077;-84
2021/09/23 14:05:44;;;;;;;3.65;2.22;;;19.40;99.90;;;;;;5027535;28;20045;-85
2021/09/23 14:08:11;;;;;;;2.42;1.95;;;19.50;99.90;;;;;;5028310;28;20053;-84
2021/09/23 14:10:38;;;;;;;2.50;1.60;;;19.40;99.90;;;;;;5028212;28;20045;-84
2021/09/23 14:13:05;;;;;;;4.97;2.17;;;19.40;99.90;;;;;;5026398;28;20053;-83
2021/09/23 14:15:32;;;;;;;3.13;2.03;;;19.40;99.90;;;;;;5028577;28;20068;-85
2021/09/23 14:17:59;;;;;;;4.57;2.20;;;19.50;99.90;;;;;;5028677;28;20095;-85
2021/09/23 14:20:36;;;;;;;3.38;1.50;;;19.50;99.90;;;;;;5026208;28;20412;-86
2021/09/23 14:23:03;;;;;;;2.40;1.52;;;19.50;99.90;;;;;;5028196;28;20056;-84
2021/09/23 14:25:30;;;;;;;3.63;2.00;;;19.50;99.90;;;;;;5027749;28;20037;-85
2021/09/23 14:27:57;;;;;;;1.75;1.48;;;19.50;99.90;;;;;;5028213;28;20049;-84
2021/09/23 14:30:24;;;;;;;3.50;2.05;;;19.50;99.90;;;;;;5028529;28;20113;-84
2021/09/23 14:32:52;;;;;;;2.75;1.80;;;19.50;99.90;;;;;;5029043;28;20104;-83
2021/09/23 14:35:19;;;;;;;3.65;1.95;;;19.50;99.90;;;;;;5026848;28;20428;-86
2021/09/23 14:37:45;;;;;;;2.90;1.60;;;19.40;99.90;;;;;;5027787;28;20046;-84
2021/09/23 14:40:13;;;;;;;2.70;1.67;;;19.40;99.90;;;;;;5027768;28;20041;-84
2021/09/23 14:42:43;;;;;;;2.55;1.80;;;19.30;99.90;;;;;;5012131;28;20091;-85
2021/09/23 14:45:14;;;;;;;3.20;1.50;;;19.30;99.90;;;;;;5029143;28;20049;-84
2021/09/23 14:47:40;;;;;;;4.38;1.42;;;19.40;99.90;;;;;;5024677;28;20155;-84
2021/09/23 14:50:08;;;;;;;4.78;1.42;;;19.40;99.90;;;;;;5026801;28;20048;-85
2021/09/23 14:52:35;;;;;;;3.35;1.50;;;19.40;99.90;;;;;;5027829;28;20041;-84
2021/09/23 14:55:05;;;;;;;2.95;1.67;;;19.40;99.90;;;;;;5026540;28;20068;-84
2021/09/23 14:57:32;;;;;;;2.20;1.40;;;19.40;99.90;;;;;;5027551;28;20529;-85
2021/09/23 14:59:59;;;;;;;3.28;1.63;;;19.40;99.90;;;;;;5027868;28;20075;-85
2021/09/23 15:02:29;;;;;;;2.65;1.60;;;19.40;99.90;;;;;;5027535;28;20052;-85
2021/09/23 15:04:56;;;;;;;2.60;1.40;;;19.40;99.90;;;;;;5027140;28;20049;-85
2021/09/23 15:07:23;;;;;;;4.18;1.30;;;19.40;99.90;;;;;;5027033;28;20045;-85
2021/09/23 15:09:51;;;;;;;2.23;1.23;;;19.30;99.90;;;;;;5028504;28;20049;-84
2021/09/23 15:12:18;;;;;;;2.63;1.40;;;19.30;99.90;;;;;;5029095;28;20049;-84
2021/09/23 15:14:45;;;;;;;2.03;1.30;;;19.30;99.90;;;;;;5028229;28;20458;-84
2021/09/23 15:17:12;;;;;;;1.50;1.33;;;19.20;99.90;;;;;;5026132;28;20095;-86
2021/09/23 15:19:39;;;;;;;4.35;1.63;;;19.20;99.90;;;;;;5027214;28;20139;-84
2021/09/23 15:22:06;;;;;;;1.85;1.40;;;19.20;99.90;;;;;;5026885;28;20050;-83
2021/09/23 15:24:33;;;;;;;2.10;1.20;;;19.20;99.90;;;;;;5027455;28;20415;-84
2021/09/23 15:27:00;;;;;;;2.13;1.30;;;19.20;99.90;;;;;;5029516;28;20116;-84
2021/09/23 15:29:27;;;;;;;4.13;1.33;;;19.10;99.90;;;;;;5024969;28;20507;-85
2021/09/23 15:31:54;;;;;;;2.97;1.48;;;19.10;99.90;;;;;;5026486;28;20065;-83
2021/09/23 15:34:21;;;;;;;3.30;1.40;;;19.00;99.90;;;;;;5025463;28;20053;-84
2021/09/23 15:36:47;;;;;;;2.17;1.20;;;19.10;99.90;;;;;;5026437;28;20052;-84
2021/09/23 15:39:14;;;;;;;2.70;1.30;;;19.10;99.90;;;;;;5026869;28;20041;-84
2021/09/23 15:41:41;;;;;;;1.77;1.33;;;19.10;99.90;;;;;;5025574;28;20052;-85
2021/09/23 15:44:08;;;;;;;1.38;1.10;;;19.10;99.90;;;;;;5025415;28;20052;-85
2021/09/23 15:46:36;;;;;;;2.38;1.40;;;19.10;99.90;;;;;;5026318;28;20103;-83
2021/09/23 15:49:03;;;;;;;2.40;1.33;;;19.10;99.90;;;;;;5026266;28;20136;-83
2021/09/23 15:51:30;;;;;;;2.92;1.30;;;19.10;99.90;;;;;;5024681;28;20462;-85
2021/09/23 15:53:56;;;;;;;1.25;0.90;;;19.10;99.90;;;;;;5025719;28;20071;-84
2021/09/23 15:56:23;;;;;;;1.77;1.23;;;19.10;99.90;;;;;;5025554;28;20393;-85
2021/09/23 15:58:50;;;;;;;1.50;1.20;;;19.10;99.90;;;;;;5026111;28;20069;-85
2021/09/23 16:01:17;;;;;;;1.75;1.15;;;19.10;99.90;;;;;;5025622;28;20049;-85
2021/09/23 16:03:45;;;;;;;1.85;1.10;;;19.10;99.90;;;;;;5025876;28;20164;-85
2021/09/23 16:06:13;;;;;;;1.95;1.20;;;19.00;99.90;;;;;;5023419;28;20049;-83
2021/09/23 16:08:40;;;;;;;1.42;1.00;;;19.00;99.90;;;;;;5025804;28;20095;-84
2021/09/23 16:11:08;;;;;;;2.13;0.90;;;19.00;99.90;;;;;;5029390;28;20053;-85
2021/09/23 16:13:36;;;;;;;3.20;1.10;;;19.00;99.90;;;;;;5029643;28;20056;-85
2021/09/23 16:16:03;;;;;;;1.90;0.98;;;18.90;99.90;;;;;;5035293;28;20082;-85
2021/09/23 16:18:32;;;;;;;1.30;1.02;;;18.90;99.90;;;;;;5036806;28;20470;-86
2021/09/23 16:20:59;;;;;;;3.33;0.93;;;18.90;99.90;;;;;;5036290;28;20052;-86
2021/09/23 16:23:38;;;;;;;1.80;0.90;;;18.90;99.90;;;;;;5033245;28;20080;-93
2021/09/23 16:26:05;;;;;;;3.85;1.00;;;18.90;99.90;;;;;;5032041;28;20064;-85
2021/09/23 16:28:32;;;;;;;2.22;0.95;;;18.90;99.90;;;;;;5034471;28;20099;-85
2021/09/23 16:30:59;;;;;;;1.20;0.80;;;18.90;99.90;;;;;;5036546;28;20045;-86
2021/09/23 16:33:26;;;;;;;2.47;1.02;;;18.90;99.90;;;;;;5043421;28;20043;-85
2021/09/23 16:35:55;;;;;;;3.05;0.85;;;18.90;99.90;;;;;;5062484;28;20049;-86
2021/09/23 16:38:22;;;;;;;3.30;0.90;;;18.80;99.90;;;;;;5043793;28;20037;-85
2021/09/23 16:40:49;;;;;;;1.80;0.70;;;18.80;99.90;;;;;;5036545;28;20630;-84
2021/09/23 16:43:16;;;;;;;2.22;0.88;;;18.80;99.90;;;;;;5045836;28;20063;-85
2021/09/23 16:45:43;;;;;;;2.42;0.70;;;18.70;99.90;;;;;;5045041;28;20072;-85
2021/09/23 16:48:10;;;;;;;2.40;0.90;;;18.80;99.90;;;;;;5042788;28;20057;-85
2021/09/23 16:50:37;;;;;;;1.85;0.90;;;18.80;99.90;;;;;;5041478;28;20543;-84
2021/09/23 16:53:04;;;;;;;4.05;1.10;;;18.80;99.90;;;;;;5038488;28;20514;-86
2021/09/23 16:55:31;;;;;;;1.65;0.90;;;18.80;99.90;;;;;;5042921;28;20045;-84
2021/09/23 16:57:59;;;;;;;4.37;1.17;;;18.70;99.90;;;;;;5036427;28;20414;-83
2021/09/23 17:00:27;;;;;;;2.28;0.90;;;18.70;99.90;;;;;;5038906;28;20048;-83
2021/09/23 17:02:54;;;;;;;3.85;0.88;;;18.70;99.90;;;;;;5044906;28;20498;-83
2021/09/23 17:05:22;;;;;;;2.03;0.85;;;18.70;99.90;;;;;;5043127;28;20079;-84
2021/09/23 17:07:49;;;;;;;2.08;0.82;;;18.60;99.90;;;;;;5035449;28;20053;-83
2021/09/23 17:10:17;;;;;;;3.40;1.20;;;18.60;99.90;;;;;;5030013;28;20053;-85
2021/09/23 17:12:44;;;;;;;2.78;0.93;;;18.60;99.90;;;;;;5037722;28;20042;-86
2021/09/23 17:15:13;;;;;;;3.70;1.27;;;18.50;99.90;;;;;;5041432;28;20511;-84
2021/09/23 17:17:40;;;;;;;2.38;1.63;;;18.40;99.90;;;;;;5039509;28;20549;-85
2021/09/23 17:20:08;;;;;;;2.88;1.60;;;18.40;99.90;;;;;;5038917;28;20045;-86
2021/09/23 17:22:37;;;;;;;3.13;1.63;;;18.30;99.90;;;;;;5040918;28;20103;-85
2021/09/23 17:25:06;;;;;;;5.50;1.70;;;18.30;99.90;;;;;;5040957;28;20049;-85
2021/09/23 17:27:33;;;;;;;3.22;1.88;;;18.20;99.90;;;;;;5036463;28;20077;-84
2021/09/23 17:30:00;;;;;;;5.10;1.70;;;18.20;99.90;;;;;;5044287;28;20132;-86
2021/09/23 17:32:27;;;;;;;4.22;2.00;;;18.10;99.90;;;;;;5038693;28;20462;-84
2021/09/23 17:34:54;;;;;;;2.17;1.30;;;18.00;99.90;;;;;;5033957;28;20062;-84
2021/09/23 17:37:21;;;;;;;4.10;1.35;;;18.00;99.90;;;;;;5036197;28;20912;-83
2021/09/23 17:39:48;;;;;;;3.58;1.70;;;18.00;99.90;;;;;;5039026;28;20052;-83
2021/09/23 17:42:15;;;;;;;2.85;1.70;;;18.00;99.90;;;;;;5041805;28;20049;-85
2021/09/23 17:44:43;;;;;;;2.47;1.60;;;18.00;99.90;;;;;;5038289;28;20075;-84
2021/09/23 17:47:10;;;;;;;2.83;1.48;;;17.90;99.90;;;;;;5038316;28;20059;-85
2021/09/23 17:49:37;;;;;;;4.30;1.50;;;17.90;99.90;;;;;;5040437;28;20094;-85
2021/09/23 17:52:04;;;;;;;3.80;1.58;;;17.90;99.90;;;;;;5042449;28;20051;-85
2021/09/23 17:54:32;;;;;;;2.65;1.58;;;17.80;99.90;;;;;;5044002;28;20079;-84
2021/09/23 17:56:59;;;;;;;3.13;1.30;;;17.70;99.90;;;;;;5041939;28;20045;-85
2021/09/23 17:59:25;;;;;;;4.53;1.80;;;17.70;99.90;;;;;;5036489;28;20049;-86
2021/09/23 18:01:52;;;;;;;4.47;1.25;;;17.60;99.90;;;;;;5037612;28;20503;-85
2021/09/23 18:04:20;;;;;;;2.55;1.20;;;17.50;99.90;;;;;;5034801;28;20041;-86
2021/09/23 18:06:47;;;;;;;2.17;1.10;;;17.50;99.90;;;;;;5036962;28;20049;-86
2021/09/23 18:09:14;;;;;;;2.97;1.23;;;17.30;99.90;;;;;;5042258;28;20048;-85
2021/09/23 18:11:41;;;;;;;1.83;1.17;;;17.30;99.90;;;;;;5038409;28;20114;-86
2021/09/23 18:14:07;;;;;;;3.40;1.20;;;17.20;99.90;;;;;;5035378;28;20049;-85
2021/09/23 18:16:34;;;;;;;2.50;1.10;;;17.10;99.90;;;;;;5036776;28;20048;-86
2021/09/23 18:19:06;;;;;;;4.38;1.33;;;16.90;99.90;;;;;;5038922;28;20053;-86
2021/09/23 18:21:35;;;;;;;3.45;1.15;;;16.80;99.90;;;;;;5030375;28;20041;-86
2021/09/23 18:24:03;;;;;;;5.20;2.00;;;16.80;99.90;;;;;;5047282;28;20084;-85
2021/09/23 18:26:32;;;;;;;2.75;1.02;;;16.60;99.90;;;;;;5033153;28;20045;-86
2021/09/23 18:28:59;;;;;;;2.20;1.20;;;16.60;99.90;;;;;;5034819;28;20040;-86
2021/09/23 18:31:27;;;;;;;3.97;1.30;;;16.50;99.90;;;;;;5000534;28;20388;-86
2021/09/23 18:33:55;;;;;;;;;;;16.40;99.90;;;;;;5057887;28;20568;-86
2021/09/23 18:36:26;;;;;;;3.15;1.20;;;16.40;99.90;;;;;;5027424;28;19928;-86
2021/09/23 18:38:54;;;;;;;1.20;0.80;;;16.30;99.90;;;;;;5028259;28;20486;-88
2021/09/23 18:41:21;;;;;;;2.75;1.35;;;16.20;99.90;;;;;;5024857;28;20923;-86
2021/09/23 18:43:49;;;;;;;3.75;0.95;;;16.20;99.90;;;;;;5027813;28;20403;-86
2021/09/23 18:46:17;;;;;;;1.63;1.00;;;16.10;99.90;;;;;;5025343;28;20056;-87
2021/09/23 18:48:45;;;;;;;1.70;1.00;;;16.00;99.90;;;;;;5027512;28;20072;-86
2021/09/23 18:51:13;;;;;;;2.63;0.90;;;16.00;99.90;;;;;;5028857;28;20049;-85
2021/09/23 18:53:43;;;;;;;2.40;1.10;;;15.90;99.90;;;;;;5021510;28;20077;-85
2021/09/23 18:56:09;;;;;;;2.05;0.70;;;15.80;99.90;;;;;;5016230;28;20048;-86
2021/09/23 18:58:36;;;;;;;2.28;1.10;;;15.80;99.90;;;;;;5016818;28;20480;-85
2021/09/23 19:01:04;;;;;;;1.73;0.82;;;15.70;99.90;;;;;;5010131;28;20057;-84
2021/09/23 19:03:31;;;;;;;1.42;0.80;;;15.70;99.90;;;;;;5018618;28;20050;-86
2021/09/23 19:05:59;;;;;;;3.13;0.90;;;15.60;99.90;;;;;;5011282;28;20408;-85
2021/09/23 19:08:26;;;;;;;1.90;0.77;;;15.60;99.90;;;;;;5017444;28;20045;-85
2021/09/23 19:10:53;;;;;;;2.53;0.70;;;15.50;99.90;;;;;;5044720;28;20054;-86
2021/09/23 19:13:21;;;;;;;3.30;0.90;;;15.50;99.90;;;;;;5009965;28;20042;-85